Time;durP1;ratioP1;P1;durP2;ratioP2;P2;SDS_P1;SDS_P2;PMS_P1;PMS_P2;Temp;Humidity;BMP_temperature;BMP_pressure;BME280_temperature;BME280_humidity;BME280_pressure;Samples;Min_cycle;Max_cycle;Signal;HPM_P1;HPM_P2
2023/12/11 00:02:05;;;;;;;31.50;5.68;;;6.80;99.90;;;5.33;100.00;99357.78;4942184;28;20047;-81
2023/12/11 00:04:31;;;;;;;37.25;5.47;;;6.80;99.90;;;5.34;100.00;99351.66;4938516;28;20037;-81
2023/12/11 00:06:59;;;;;;;28.90;5.93;;;6.80;99.90;;;5.32;100.00;99343.88;4902490;28;20052;-82
2023/12/11 00:09:27;;;;;;;32.10;5.68;;;6.80;99.90;;;5.32;100.00;99345.66;4915378;28;20030;-81
2023/12/11 00:11:53;;;;;;;21.25;4.68;;;6.70;99.90;;;5.25;100.00;99339.88;4931697;28;20392;-81
2023/12/11 00:14:19;;;;;;;28.05;5.57;;;6.70;99.90;;;5.28;100.00;99328.44;4922023;28;20034;-80
2023/12/11 00:16:46;;;;;;;33.70;7.13;;;6.70;99.90;;;5.28;100.00;99329.28;4923582;28;20039;-81
2023/12/11 00:19:20;;;;;;;38.22;6.10;;;6.70;99.90;;;5.28;100.00;99328.44;4921977;28;20454;-81
2023/12/11 00:21:46;;;;;;;52.47;6.13;;;6.70;99.90;;;5.29;100.00;99330.13;4924418;28;20086;-81
2023/12/11 00:24:12;;;;;;;32.92;6.00;;;6.70;99.90;;;5.32;100.00;99324.78;4893915;28;20050;-81
2023/12/11 00:26:38;;;;;;;35.70;6.07;;;6.80;99.90;;;5.31;100.00;99318.72;4907221;28;20038;-82
2023/12/11 00:29:08;;;;;;;37.30;6.40;;;6.80;99.90;;;5.33;100.00;99318.63;4939612;28;20413;-80
2023/12/11 00:31:33;;;;;;;35.55;5.72;;;6.80;99.90;;;5.35;100.00;99314.19;4917059;28;20044;-79
2023/12/11 00:33:59;;;;;;;38.95;6.35;;;6.80;99.90;;;5.37;100.00;99303.66;4925066;28;20048;-81
2023/12/11 00:36:25;;;;;;;52.20;7.13;;;6.80;99.90;;;5.38;100.00;99302.75;4944639;28;20045;-79
2023/12/11 00:38:51;;;;;;;38.90;6.22;;;6.80;99.90;;;5.38;100.00;99302.75;4903839;28;20043;-81
2023/12/11 00:41:17;;;;;;;42.13;6.30;;;6.80;99.90;;;5.37;100.00;99296.69;4944802;28;20042;-79
2023/12/11 00:43:43;;;;;;;41.58;6.75;;;6.80;99.90;;;5.40;100.00;99293.06;4956530;28;20574;-81
2023/12/11 00:46:19;;;;;;;38.60;6.72;;;6.80;99.90;;;5.39;100.00;99289.63;4962121;28;20045;-81
2023/12/11 00:48:44;;;;;;;34.08;6.22;;;6.80;99.90;;;5.38;100.00;99285.34;4947220;28;20035;-81
2023/12/11 00:51:20;;;;;;;37.03;6.38;;;6.80;99.90;;;5.38;100.00;99293.16;4909254;28;20420;-81
2023/12/11 00:53:47;;;;;;;37.08;6.22;;;6.80;99.90;;;5.37;100.00;99283.63;4922286;28;21884;-81
2023/12/11 00:56:14;;;;;;;35.53;6.45;;;6.80;99.90;;;5.36;100.00;99279.34;4964928;28;20110;-81
2023/12/11 00:58:47;;;;;;;36.33;6.80;;;6.80;99.90;;;5.37;100.00;99280.19;4910717;28;20034;-81
2023/12/11 01:01:13;;;;;;;36.15;6.25;;;6.80;99.90;;;5.34;100.00;99281.19;4923102;28;20078;-80
2023/12/11 01:03:39;;;;;;;41.47;6.63;;;6.80;99.90;;;5.34;100.00;99283.78;4929178;28;20034;-81
2023/12/11 01:06:05;;;;;;;46.83;7.00;;;6.70;99.90;;;5.33;100.00;99280.34;4906788;28;20062;-81
2023/12/11 01:08:41;;;;;;;45.70;7.25;;;6.70;99.90;;;5.34;100.00;99275.97;4931719;28;20059;-81
2023/12/11 01:11:08;;;;;;;42.42;6.38;;;6.70;99.90;;;5.34;100.00;99282.00;4928864;28;20118;-80
2023/12/11 01:13:34;;;;;;;39.72;6.40;;;6.70;99.90;;;5.33;100.00;99276.84;4969831;28;20033;-80
2023/12/11 01:16:00;;;;;;;40.20;6.85;;;6.70;99.90;;;5.32;100.00;99272.56;4956662;28;20880;-81
2023/12/11 01:18:30;;;;;;;47.65;6.28;;;6.70;99.90;;;5.30;100.00;99269.19;4963387;28;20046;-81
2023/12/11 01:20:56;;;;;;;38.47;6.70;;;6.70;99.90;;;5.27;100.00;99264.09;4947264;28;20523;-81
2023/12/11 01:23:22;;;;;;;50.20;7.63;;;6.70;99.90;;;5.24;100.00;99265.09;4941139;28;20031;-81
2023/12/11 01:25:48;;;;;;;51.53;6.68;;;6.70;99.90;;;5.25;100.00;99256.38;4949499;28;20031;-81
2023/12/11 01:28:14;;;;;;;39.97;6.95;;;6.70;99.90;;;5.25;100.00;99263.34;4943680;28;20112;-81
2023/12/11 01:30:39;;;;;;;44.05;7.32;;;6.70;99.90;;;5.25;100.00;99268.56;4941581;28;20038;-81
2023/12/11 01:33:11;;;;;;;29.98;6.40;;;6.70;99.90;;;5.22;100.00;99268.72;4913339;28;20565;-81
2023/12/11 01:35:37;;;;;;;43.15;5.85;;;6.60;99.90;;;5.18;100.00;99269.75;4918573;28;20106;-81
2023/12/11 01:38:03;;;;;;;33.10;5.75;;;6.60;99.90;;;5.17;100.00;99265.47;4952826;28;20051;-81
2023/12/11 01:40:29;;;;;;;35.30;5.25;;;6.60;99.90;;;5.15;100.00;99257.72;4934158;28;20479;-81
2023/12/11 01:42:55;;;;;;;31.42;5.35;;;6.60;99.90;;;5.12;100.00;99256.09;4912150;28;20134;-81
2023/12/11 01:45:21;;;;;;;31.10;5.30;;;6.60;99.90;;;5.11;100.00;99259.63;4967458;28;20066;-81
2023/12/11 01:47:49;;;;;;;35.90;4.63;;;6.50;99.90;;;5.10;100.00;99262.31;4910820;29;20454;-81
2023/12/11 01:50:16;;;;;;;34.80;4.60;;;6.60;99.90;;;5.09;100.00;99248.41;4871766;29;20040;-81
2023/12/11 01:52:43;;;;;;;26.38;4.65;;;6.60;99.90;;;5.08;100.00;99254.56;4895745;28;20081;-82
2023/12/11 01:55:09;;;;;;;36.17;4.35;;;6.50;99.90;;;5.04;100.00;99250.41;4889673;29;20074;-81
2023/12/11 01:57:35;;;;;;;27.50;4.88;;;6.50;99.90;;;5.05;100.00;99251.25;4907475;28;20674;-80
2023/12/11 02:00:09;;;;;;;28.38;3.38;;;6.50;99.90;;;5.04;100.00;99247.78;4886135;29;20040;-81
2023/12/11 02:02:35;;;;;;;27.48;4.10;;;6.50;99.90;;;5.05;100.00;99248.63;4861746;28;20086;-80
2023/12/11 02:05:01;;;;;;;36.05;4.72;;;6.50;99.90;;;5.07;100.00;99241.56;4886997;28;20065;-80
2023/12/11 02:07:27;;;;;;;38.10;4.65;;;6.50;99.90;;;5.10;100.00;99241.44;4885460;28;20067;-81
2023/12/11 02:10:00;;;;;;;30.95;3.80;;;6.50;99.90;;;5.09;100.00;99240.59;4886128;28;20079;-80
2023/12/11 02:12:26;;;;;;;32.58;4.95;;;6.60;99.90;;;5.10;100.00;99237.06;4869456;29;20037;-80
2023/12/11 02:14:52;;;;;;;29.30;4.88;;;6.60;99.90;;;5.12;100.00;99245.66;4888256;28;20027;-80
2023/12/11 02:17:17;;;;;;;34.60;4.25;;;6.60;99.90;;;5.13;100.00;99238.69;4877966;28;20038;-80
2023/12/11 02:19:46;;;;;;;36.65;6.00;;;6.60;99.90;;;5.16;100.00;99241.13;4866426;28;20048;-79
2023/12/11 02:22:12;;;;;;;31.10;4.43;;;6.60;99.90;;;5.19;100.00;99234.94;4939703;28;20045;-80
2023/12/11 02:24:47;;;;;;;44.00;5.40;;;6.60;99.90;;;5.20;100.00;99240.06;4935604;28;20118;-80
2023/12/11 02:27:22;;;;;;;33.22;4.85;;;6.70;99.90;;;5.20;100.00;99234.00;4934009;28;20038;-80
2023/12/11 02:29:50;;;;;;;37.50;4.80;;;6.60;99.90;;;5.21;100.00;99235.72;4914397;28;20088;-81
2023/12/11 02:32:19;;;;;;;52.30;5.22;;;6.60;99.90;;;5.19;100.00;99224.50;4916279;28;20031;-81
2023/12/11 02:34:48;;;;;;;47.15;6.15;;;6.60;99.90;;;5.17;100.00;99224.56;4910011;28;20069;-81
2023/12/11 02:37:14;;;;;;;25.15;5.07;;;6.60;99.90;;;5.19;100.00;99229.72;4944808;28;20091;-81
2023/12/11 02:39:40;;;;;;;27.88;4.97;;;6.60;99.90;;;5.19;100.00;99225.34;4911771;28;20572;-79
2023/12/11 02:42:06;;;;;;;42.65;4.70;;;6.60;99.90;;;5.19;100.00;99219.28;4925877;28;20045;-81
2023/12/11 02:44:32;;;;;;;32.45;4.75;;;6.60;99.90;;;5.19;100.00;99221.91;4922131;28;20031;-81
2023/12/11 02:47:05;;;;;;;47.22;6.15;;;6.60;99.90;;;5.19;100.00;99221.91;4942147;28;20031;-81
2023/12/11 02:49:31;;;;;;;37.03;4.68;;;6.60;99.90;;;5.18;100.00;99217.59;4933843;28;20054;-81
2023/12/11 02:51:57;;;;;;;33.08;5.47;;;6.60;99.90;;;5.19;100.00;99214.06;4963620;28;20026;-80
2023/12/11 02:54:22;;;;;;;38.20;5.35;;;6.60;99.90;;;5.20;100.00;99216.59;4916786;28;20098;-81
2023/12/11 02:56:50;;;;;;;38.28;5.03;;;6.70;99.90;;;5.21;100.00;99209.63;4897820;28;20126;-81
2023/12/11 02:59:19;;;;;;;39.72;4.95;;;6.70;99.90;;;5.20;100.00;99200.91;4902157;28;20038;-81
2023/12/11 03:01:44;;;;;;;41.42;4.90;;;6.60;99.90;;;5.22;100.00;99198.25;4918330;28;20031;-80
2023/12/11 03:04:10;;;;;;;44.15;5.03;;;6.70;99.90;;;5.24;100.00;99196.41;4919426;28;20039;-81
2023/12/11 03:06:36;;;;;;;46.85;5.35;;;6.70;99.90;;;5.25;100.00;99195.50;4958223;28;20034;-81
2023/12/11 03:09:03;;;;;;;35.20;4.75;;;6.70;99.90;;;5.26;100.00;99194.56;4941216;28;20516;-82
2023/12/11 03:11:31;;;;;;;37.92;5.00;;;6.70;99.90;;;5.25;100.00;99188.50;4945926;28;20085;-81
2023/12/11 03:13:57;;;;;;;38.22;5.05;;;6.70;99.90;;;5.26;100.00;99184.97;4935684;28;20035;-81
2023/12/11 03:16:23;;;;;;;41.72;5.55;;;6.70;99.90;;;5.27;100.00;99180.59;4877268;28;20039;-81
2023/12/11 03:18:48;;;;;;;58.92;5.70;;;6.70;99.90;;;5.28;100.00;99177.06;4913378;28;20497;-81
2023/12/11 03:21:15;;;;;;;39.00;4.53;;;6.70;99.90;;;5.30;100.00;99183.06;4896347;28;20540;-80
2023/12/11 03:23:41;;;;;;;47.25;5.47;;;6.70;99.90;;;5.28;100.00;99174.47;4916097;28;20040;-81
2023/12/11 03:26:07;;;;;;;42.72;5.35;;;6.70;99.90;;;5.28;100.00;99175.31;4934993;28;20488;-81
2023/12/11 03:28:40;;;;;;;34.05;4.88;;;6.70;99.90;;;5.29;100.00;99166.56;4918738;28;20035;-81
2023/12/11 03:31:06;;;;;;;28.38;4.43;;;6.70;99.90;;;5.30;100.00;99165.63;4907366;28;20039;-81
2023/12/11 03:33:32;;;;;;;30.90;4.28;;;6.70;99.90;;;5.30;100.00;99170.84;4929174;28;20539;-81
2023/12/11 03:35:58;;;;;;;39.15;4.80;;;6.70;99.90;;;5.30;100.00;99163.03;4968816;28;20377;-80
2023/12/11 03:38:26;;;;;;;46.88;4.75;;;6.70;99.90;;;5.30;100.00;99164.78;4953728;28;20046;-80
2023/12/11 03:40:51;;;;;;;84.82;6.40;;;6.70;99.90;;;5.29;100.00;99158.75;4904581;28;20039;-81
2023/12/11 03:43:17;;;;;;;80.13;4.55;;;6.70;99.90;;;5.29;100.00;99161.34;4924376;28;20026;-81
2023/12/11 03:45:43;;;;;;;171.80;6.07;;;6.70;99.90;;;5.27;100.00;99152.75;4932727;28;20034;-81
2023/12/11 03:48:09;;;;;;;145.93;5.13;;;6.70;99.90;;;5.26;100.00;99153.66;4962089;28;20038;-81
2023/12/11 03:50:35;;;;;;;72.20;3.85;;;7.30;99.90;;;5.24;100.00;99150.28;4879229;28;20096;-81
2023/12/11 03:53:01;;;;;;;71.05;3.50;;;6.70;99.90;;;5.24;100.00;99154.66;4912855;28;20401;-81
2023/12/11 03:55:26;;;;;;;44.47;4.00;;;6.60;99.90;;;5.22;100.00;99148.66;4933066;28;20061;-82
2023/12/11 03:58:01;;;;;;;58.25;3.13;;;6.60;99.90;;;5.20;100.00;99147.91;4906993;28;20082;-81
2023/12/11 04:00:27;;;;;;;76.35;3.08;;;6.60;99.90;;;5.19;100.00;99146.22;4952182;28;20425;-81
2023/12/11 04:02:53;;;;;;;28.10;1.50;;;6.60;99.90;;;5.17;100.00;99151.50;4912208;28;20033;-80
2023/12/11 04:05:19;;;;;;;35.33;2.10;;;6.60;99.90;;;5.13;100.00;99139.53;4924191;28;20026;-82
2023/12/11 04:07:48;;;;;;;30.05;1.50;;;6.50;99.90;;;5.10;100.00;99144.91;4917376;28;20500;-81
2023/12/11 04:10:13;;;;;;;50.50;2.25;;;6.50;99.90;;;5.08;100.00;99139.75;4930945;28;20081;-81
2023/12/11 04:12:42;;;;;;;61.70;2.10;;;6.50;99.90;;;5.05;100.00;99132.06;4935928;28;20028;-82
2023/12/11 04:15:09;;;;;;;50.60;2.83;;;6.50;99.90;;;5.01;100.00;99133.16;4947509;28;20505;-81
2023/12/11 04:17:36;;;;;;;85.93;3.30;;;6.40;99.90;;;5.00;100.00;99125.41;4925068;28;20070;-80
2023/12/11 04:20:04;;;;;;;93.78;3.25;;;6.40;99.90;;;4.97;100.00;99130.75;4937059;28;20066;-81
2023/12/11 04:22:30;;;;;;;65.70;2.38;;;6.40;99.90;;;4.93;100.00;99125.72;4912203;28;20054;-82
2023/12/11 04:24:56;;;;;;;76.38;4.88;;;6.40;99.90;;;4.90;100.00;99128.47;4922439;28;20536;-80
2023/12/11 04:27:22;;;;;;;51.22;2.22;;;6.40;99.90;;;4.90;100.00;99128.47;4921030;28;20485;-81
2023/12/11 04:29:47;;;;;;;74.25;2.80;;;6.30;99.90;;;4.87;100.00;99123.38;4915660;28;20616;-81
2023/12/11 04:32:13;;;;;;;52.85;2.53;;;6.30;99.90;;;4.87;100.00;99131.22;4955706;28;20050;-80
2023/12/11 04:34:41;;;;;;;51.17;2.53;;;6.30;99.90;;;4.86;100.00;99128.66;4962499;28;20034;-82
2023/12/11 04:37:10;;;;;;;34.28;2.05;;;6.30;99.90;;;4.86;100.00;99128.66;4873058;28;20048;-82
2023/12/11 04:39:36;;;;;;;22.50;2.80;;;6.30;99.90;;;4.84;100.00;99127.94;4930809;28;20698;-81
2023/12/11 04:42:02;;;;;;;45.42;2.75;;;6.30;99.90;;;4.83;100.00;99128.84;4958667;28;20046;-81
2023/12/11 04:44:27;;;;;;;41.60;2.20;;;6.30;99.90;;;4.82;100.00;99132.38;4946606;28;20054;-81
2023/12/11 04:46:53;;;;;;;23.13;2.67;;;6.20;99.90;;;4.82;100.00;99133.22;4927387;28;20382;-81
2023/12/11 04:49:19;;;;;;;46.35;2.25;;;6.30;99.90;;;4.82;100.00;99133.22;4963970;28;20573;-81
2023/12/11 04:51:52;;;;;;;29.63;2.70;;;6.20;99.90;;;4.82;100.00;99132.38;4910708;28;20051;-81
2023/12/11 04:54:18;;;;;;;39.53;4.30;;;6.20;99.90;;;4.81;100.00;99135.88;4943552;28;20027;-81
2023/12/11 04:56:44;;;;;;;27.27;4.57;;;6.20;99.90;;;4.82;100.00;99129.78;4922583;28;20042;-81
2023/12/11 04:59:10;;;;;;;55.65;3.90;;;6.30;99.90;;;4.82;100.00;99135.81;4940364;28;20030;-81
2023/12/11 05:01:41;;;;;;;29.73;2.55;;;6.20;99.90;;;4.82;100.00;99125.38;4964177;28;20497;-81
2023/12/11 05:04:06;;;;;;;45.08;2.80;;;6.20;99.90;;;4.82;100.00;99127.16;4923056;28;20038;-81
2023/12/11 05:06:32;;;;;;;32.35;2.75;;;6.20;99.90;;;4.80;100.00;99124.63;4890724;28;21222;-81
2023/12/11 05:08:58;;;;;;;73.95;3.33;;;6.20;99.90;;;4.78;100.00;99128.22;4927985;28;20045;-81
2023/12/11 05:11:24;;;;;;;69.57;4.43;;;6.20;99.90;;;4.80;100.00;99131.59;4932045;28;20154;-81
2023/12/11 05:13:50;;;;;;;63.58;4.50;;;6.20;99.90;;;4.78;100.00;99134.28;4925702;28;20034;-81
2023/12/11 05:16:23;;;;;;;162.35;6.20;;;6.20;99.90;;;4.77;100.00;99129.97;4965746;28;20041;-81
2023/12/11 05:18:49;;;;;;;218.02;6.70;;;6.20;99.90;;;4.74;100.00;99122.31;4898764;28;20190;-82
2023/12/11 05:21:15;;;;;;;126.38;4.70;;;6.20;99.90;;;4.70;100.00;99118.97;4907074;28;24776;-81
2023/12/11 05:23:41;;;;;;;151.02;5.72;;;6.10;99.90;;;4.69;100.00;99119.91;4912766;28;20035;-82
2023/12/11 05:26:07;;;;;;;130.15;5.85;;;6.10;99.90;;;4.68;100.00;99125.19;4917253;28;20101;-81
2023/12/11 05:28:42;;;;;;;148.68;6.40;;;6.10;99.90;;;4.66;100.00;99120.06;4935769;28;20034;-81
2023/12/11 05:31:10;;;;;;;169.73;5.63;;;6.10;99.90;;;4.66;100.00;99130.47;4912866;28;20046;-81
2023/12/11 05:33:44;;;;;;;150.95;6.55;;;6.10;99.90;;;4.66;100.00;99132.25;4931048;28;20092;-81
2023/12/11 05:36:10;;;;;;;115.18;5.45;;;6.10;99.90;;;4.65;100.00;99128.81;4918736;28;20525;-80
2023/12/11 05:38:36;;;;;;;136.60;6.00;;;6.10;99.90;;;4.64;100.00;99127.09;4970028;28;20110;-81
2023/12/11 05:41:02;;;;;;;94.75;5.32;;;6.10;99.90;;;4.64;100.00;99126.25;4926297;28;20042;-81
2023/12/11 05:43:30;;;;;;;104.80;7.55;;;6.10;99.90;;;4.64;100.00;99136.69;4921411;28;20071;-81
2023/12/11 05:45:58;;;;;;;34.28;5.05;;;6.10;99.90;;;4.65;100.00;99128.81;4933223;28;20496;-82
2023/12/11 05:48:24;;;;;;;65.45;5.28;;;6.10;99.90;;;4.66;100.00;99127.03;4904937;28;20069;-81
2023/12/11 05:50:50;;;;;;;62.65;6.65;;;6.10;99.90;;;4.67;100.00;99126.97;4943391;28;20030;-81
2023/12/11 05:53:15;;;;;;;95.70;6.30;;;6.10;99.90;;;4.69;100.00;99117.31;4907326;28;20470;-82
2023/12/11 05:55:41;;;;;;;56.42;6.10;;;6.10;99.90;;;4.70;100.00;99121.59;4958523;28;20041;-82
2023/12/11 05:58:07;;;;;;;60.05;6.55;;;6.10;99.90;;;4.70;100.00;99121.59;4968178;28;20033;-81
2023/12/11 06:00:33;;;;;;;110.10;7.55;;;6.10;99.90;;;4.71;100.00;99120.69;4959736;28;20046;-81
2023/12/11 06:03:02;;;;;;;72.85;5.50;;;6.10;99.90;;;4.72;100.00;99127.59;4881166;28;20047;-81
2023/12/11 06:05:28;;;;;;;60.55;4.97;;;6.10;99.90;;;4.71;100.00;99131.13;4943329;28;20050;-81
2023/12/11 06:07:54;;;;;;;98.72;7.90;;;6.10;99.90;;;4.72;100.00;99140.63;4942984;28;20074;-81
2023/12/11 06:10:20;;;;;;;136.90;11.00;;;6.20;99.90;;;4.73;100.00;99141.50;4930017;28;20047;-81
2023/12/11 06:12:46;;;;;;;102.93;15.23;;;6.20;99.90;;;4.75;100.00;99144.00;4894444;28;20039;-81
2023/12/11 06:15:17;;;;;;;132.32;12.65;;;6.20;99.90;;;4.75;100.00;99137.00;4921968;28;20073;-80
2023/12/11 06:17:43;;;;;;;197.32;13.65;;;6.20;99.90;;;4.75;100.00;99139.63;4919527;28;20034;-81
2023/12/11 06:20:09;;;;;;;278.08;15.82;;;6.20;99.90;;;4.75;100.00;99137.00;4952218;28;20051;-82
2023/12/11 06:22:36;;;;;;;152.18;22.08;;;6.20;99.90;;;4.76;100.00;99127.44;4894276;28;20042;-81
2023/12/11 06:25:02;;;;;;;210.10;26.90;;;6.20;99.90;;;4.76;100.00;99137.88;4907332;28;20046;-81
2023/12/11 06:27:30;;;;;;;206.88;23.15;;;6.20;99.90;;;4.76;100.00;99132.66;4943859;28;20603;-81
2023/12/11 06:29:59;;;;;;;163.95;16.30;;;6.20;99.90;;;4.78;100.00;99130.84;4941288;28;20039;-80
2023/12/11 06:32:25;;;;;;;112.55;14.48;;;6.20;99.90;;;4.75;100.00;99128.34;4884655;28;20057;-81
2023/12/11 06:34:51;;;;;;;138.93;15.18;;;6.20;99.90;;;4.76;100.00;99132.66;4905125;28;20039;-81
2023/12/11 06:37:17;;;;;;;105.60;14.85;;;6.20;99.90;;;4.77;100.00;99136.94;4884924;28;20035;-81
2023/12/11 06:39:42;;;;;;;281.42;18.50;;;6.20;99.90;;;4.76;100.00;99133.50;4881123;28;20057;-81
2023/12/11 06:42:08;;;;;;;166.88;15.80;;;6.20;99.90;;;4.76;100.00;99132.66;4924542;28;20547;-81
2023/12/11 06:44:38;;;;;;;197.40;15.43;;;6.20;99.90;;;4.76;100.00;99138.72;4931334;28;20026;-81
2023/12/11 06:47:04;;;;;;;160.13;15.80;;;6.20;99.90;;;4.76;100.00;99137.88;4925901;28;20489;-80
2023/12/11 06:49:30;;;;;;;197.65;19.95;;;6.20;99.90;;;4.73;100.00;99139.72;4929341;28;20109;-81
2023/12/11 06:51:56;;;;;;;119.38;16.38;;;6.20;99.90;;;4.73;100.00;99144.94;4926907;28;20719;-81
2023/12/11 06:54:22;;;;;;;128.27;14.40;;;6.20;99.90;;;4.71;100.00;99144.16;4900702;28;20034;-81
2023/12/11 06:56:50;;;;;;;145.20;13.98;;;6.20;99.90;;;4.70;100.00;99150.28;4916954;28;20023;-82
2023/12/11 06:59:16;;;;;;;205.95;16.38;;;6.20;99.90;;;4.69;100.00;99151.22;4936507;28;20074;-80
2023/12/11 07:01:42;;;;;;;170.73;15.75;;;6.10;99.90;;;4.67;100.00;99150.44;4910688;28;20049;-81
2023/12/11 07:04:08;;;;;;;180.55;18.13;;;6.20;99.90;;;4.68;100.00;99153.88;4923048;28;20026;-81
2023/12/11 07:06:34;;;;;;;276.60;25.77;;;6.10;99.90;;;4.68;100.00;99157.31;4896219;28;20042;-81
2023/12/11 07:09:00;;;;;;;238.93;23.92;;;6.20;99.90;;;4.66;100.00;99147.88;4954720;28;20049;-82
2023/12/11 07:11:26;;;;;;;206.80;23.05;;;6.10;99.90;;;4.68;100.00;99148.66;4920317;28;20042;-81
2023/12/11 07:13:56;;;;;;;162.30;24.27;;;6.10;99.90;;;4.69;100.00;99148.59;4936942;28;20034;-81
2023/12/11 07:16:25;;;;;;;260.70;23.27;;;6.10;99.90;;;4.67;100.00;99145.22;4954201;28;20042;-81
2023/12/11 07:18:52;;;;;;;193.70;20.70;;;6.10;99.90;;;4.67;100.00;99145.22;4939681;28;20094;-81
2023/12/11 07:21:18;;;;;;;217.43;17.85;;;6.10;99.90;;;4.65;100.00;99144.44;4950325;28;20409;-81
2023/12/11 07:23:51;;;;;;;334.17;18.23;;;6.10;99.90;;;4.61;100.00;99139.44;4910888;28;20038;-81
2023/12/11 07:26:17;;;;;;;186.88;14.88;;;6.10;99.90;;;4.60;100.00;99148.19;4903838;28;20034;-80
2023/12/11 07:28:43;;;;;;;185.93;15.20;;;6.10;99.90;;;4.60;100.00;99148.19;4934722;28;20089;-81
2023/12/11 07:31:09;;;;;;;206.50;15.95;;;6.10;99.90;;;4.64;100.00;99142.75;4938499;28;20061;-80
2023/12/11 07:33:35;;;;;;;137.00;14.63;;;6.10;99.90;;;4.67;100.00;99139.16;4946820;28;20080;-80
2023/12/11 07:36:07;;;;;;;171.77;13.77;;;6.10;99.90;;;4.69;100.00;99146.00;4919173;28;20083;-81
2023/12/11 07:38:33;;;;;;;329.98;18.13;;;6.20;99.90;;;4.71;100.00;99141.56;4914499;28;20047;-81
2023/12/11 07:40:59;;;;;;;409.15;18.40;;;6.20;99.90;;;4.72;100.00;99142.38;4928202;28;20042;-82
2023/12/11 07:43:25;;;;;;;179.88;13.30;;;6.20;99.90;;;4.73;100.00;99144.09;4908556;28;20045;-81
2023/12/11 07:45:51;;;;;;;403.75;19.23;;;6.20;99.90;;;4.73;100.00;99146.69;4917687;28;20050;-81
2023/12/11 07:48:25;;;;;;;361.55;17.83;;;6.20;99.90;;;4.73;100.00;99157.13;4944434;28;20053;-81
2023/12/11 07:50:51;;;;;;;260.23;16.08;;;6.20;99.90;;;4.69;100.00;99161.63;4913253;28;20031;-81
2023/12/11 07:53:17;;;;;;;216.75;15.05;;;6.10;99.90;;;4.69;100.00;99163.41;4890004;28;20059;-81
2023/12/11 07:55:44;;;;;;;263.15;15.52;;;6.10;99.90;;;4.69;100.00;99160.81;4870812;28;20041;-81
2023/12/11 07:58:14;;;;;;;325.73;17.27;;;6.10;99.90;;;4.71;100.00;99166.78;4904651;28;20081;-82
2023/12/11 08:00:40;;;;;;;287.88;15.73;;;6.20;99.90;;;4.74;100.00;99166.63;4949904;28;20038;-81
2023/12/11 08:03:06;;;;;;;263.25;15.07;;;6.20;99.90;;;4.76;100.00;99169.19;4899833;28;20038;-80
2023/12/11 08:05:32;;;;;;;270.83;15.48;;;6.20;99.90;;;4.76;100.00;99170.00;4904207;28;20073;-81
2023/12/11 08:07:57;;;;;;;273.63;13.85;;;6.20;99.90;;;4.76;100.00;99170.00;4909325;28;20047;-81
2023/12/11 08:10:26;;;;;;;312.25;16.20;;;6.20;99.90;;;4.76;100.00;99170.00;4932501;28;20031;-81
2023/12/11 08:12:55;;;;;;;307.05;15.20;;;6.20;99.90;;;4.80;100.00;99175.94;4905776;28;20058;-81
2023/12/11 08:15:20;;;;;;;235.65;14.45;;;6.30;99.90;;;4.81;100.00;99175.00;4940050;28;20040;-81
2023/12/11 08:17:46;;;;;;;196.90;13.88;;;6.20;99.90;;;4.82;100.00;99176.72;4914428;28;20116;-80
2023/12/11 08:20:16;;;;;;;214.73;16.83;;;6.30;99.90;;;4.82;100.00;99172.34;4936346;28;20752;-82
2023/12/11 08:22:47;;;;;;;223.88;13.85;;;6.30;99.90;;;4.82;100.00;99168.88;4878568;28;20027;-81
2023/12/11 08:25:14;;;;;;;238.30;14.85;;;6.30;99.90;;;4.81;100.00;99173.22;4932594;28;20056;-81
2023/12/11 08:27:41;;;;;;;185.13;14.15;;;6.30;99.90;;;4.84;100.00;99167.06;4938723;28;20018;-80
2023/12/11 08:30:15;;;;;;;213.93;15.05;;;6.30;99.90;;;4.83;100.00;99166.19;4951877;28;20019;-81
2023/12/11 08:32:41;;;;;;;166.65;14.57;;;6.30;99.90;;;4.86;100.00;99170.41;4921199;28;20093;-80
2023/12/11 08:35:07;;;;;;;98.15;12.30;;;6.30;99.90;;;4.89;100.00;99172.88;4863447;28;20146;-82
2023/12/11 08:37:33;;;;;;;127.28;13.65;;;6.30;99.90;;;4.90;100.00;99165.00;4916576;28;20027;-81
2023/12/11 08:40:00;;;;;;;109.05;12.90;;;6.30;99.90;;;4.89;100.00;99172.88;4964132;28;20042;-81
2023/12/11 08:42:31;;;;;;;98.50;13.43;;;6.30;99.90;;;4.90;100.00;99174.56;4957537;28;20041;-81
2023/12/11 08:44:56;;;;;;;107.15;14.68;;;6.30;99.90;;;4.92;100.00;99165.75;4919923;28;20108;-82
2023/12/11 08:47:23;;;;;;;108.55;15.45;;;6.40;99.90;;;4.97;100.00;99164.66;4948442;28;20026;-81
2023/12/11 08:49:49;;;;;;;143.68;15.05;;;6.40;99.90;;;5.02;100.00;99160.94;4917551;28;20422;-82
2023/12/11 08:52:15;;;;;;;149.75;14.82;;;6.50;99.90;;;5.08;100.00;99172.84;4894099;28;20027;-81
2023/12/11 08:57:35;;;;;;;108.05;14.15;;;;;;;5.13;100.00;99170.84;4981996;23;21152;-86
2023/12/11 09:07:02;;;;;;;80.85;13.68;;;6.60;99.90;;;5.14;100.00;99181.22;5072974;23;20047;-86
2023/12/11 09:09:44;;;;;;;73.25;12.98;;;;;;;5.13;100.00;99179.50;4963276;28;20484;-87
2023/12/11 09:12:14;;;;;;;58.10;12.40;;;;;;;5.15;100.00;99182.06;4907783;28;20045;-87
2023/12/11 09:15:04;;;;;;;54.47;11.43;;;6.60;99.90;;;5.19;100.00;99175.75;4938509;28;20034;-87
2023/12/11 09:17:48;;;;;;;54.58;12.55;;;;;;;5.22;100.00;99167.78;4892273;28;20046;-86
2023/12/11 09:20:26;;;;;;;74.53;12.93;;;;;;;5.27;100.00;99167.53;4954301;28;20031;-87
2023/12/11 09:22:55;;;;;;;62.63;12.98;;;;;;;5.30;100.00;99178.69;4902127;28;20058;-87
2023/12/11 09:25:33;;;;;;;55.80;12.48;;;;;;;5.36;100.00;99172.31;4967598;28;20069;-87
2023/12/11 09:28:15;;;;;;;57.30;12.07;;;6.80;99.90;;;5.41;100.00;99172.94;4937004;28;20040;-87
2023/12/11 09:31:04;;;;;;;46.78;12.20;;;6.90;99.90;;;5.44;100.00;99185.84;4914667;28;20031;-86
2023/12/11 09:34:03;;;;;;;48.95;12.85;;;;;;;5.49;100.00;99175.16;4825764;29;20036;-87
2023/12/11 09:37:13;;;;;;;47.60;12.20;;;;;;;5.50;100.00;99177.69;4804793;29;20045;-86
2023/12/11 09:39:54;;;;;;;45.00;11.18;;;;;;;5.48;100.00;99178.69;4811920;29;20098;-86
2023/12/11 09:42:46;;;;;;;;;;;;;;;;;;;;;
2023/12/11 09:45:46;;;;;;;52.88;11.10;;;6.90;99.90;;;5.44;100.00;99178.00;4795459;29;20045;-86
2023/12/11 09:48:31;;;;;;;52.45;10.65;;;;;;;5.47;100.00;99172.63;4775936;29;20090;-88
2023/12/11 09:51:58;;;;;;;56.55;12.23;;;6.90;99.90;;;5.51;100.00;99168.94;4808971;29;20038;-87
2023/12/11 09:55:02;;;;;;;44.50;12.37;;;7.00;99.90;;;5.56;100.00;99166.09;4776046;29;20043;-88
2023/12/11 09:57:32;;;;;;;48.75;13.05;;;;;;;5.61;100.00;99173.69;4704777;29;20296;-87
2023/12/11 10:00:25;;;;;;;61.35;17.65;;;7.10;99.90;;;5.67;100.00;99165.53;4741424;29;20058;-85
2023/12/11 10:02:54;;;;;;;52.05;12.05;;;;;;;5.69;100.00;99171.53;4764542;29;20047;-86
2023/12/11 10:05:35;;;;;;;44.53;12.95;;;7.10;99.90;;;5.70;100.00;99171.47;4711387;30;20128;-85
2023/12/11 10:14:27;;;;;;;47.85;12.70;;;;;;;5.71;100.00;99167.06;4675138;30;20388;-86
2023/12/11 10:21:05;;;;;;;47.88;12.80;;;7.20;99.90;;;5.84;100.00;99168.13;4680815;30;20082;-85
2023/12/11 10:27:16;;;;;;;39.60;11.07;;;;;;;5.91;100.00;99176.47;4952008;23;20130;-86
2023/12/11 10:30:22;;;;;;;41.22;11.45;;;;;;;5.88;100.00;99174.03;4863439;29;20052;-86
2023/12/11 10:33:24;;;;;;;45.78;12.52;;;;;;;5.85;100.00;99167.22;4895457;29;20118;-86
2023/12/11 10:36:18;;;;;;;36.28;11.68;;;7.30;99.90;;;5.87;100.00;99162.72;4854448;29;20051;-86
2023/12/11 10:38:46;;;;;;;46.97;13.32;;;;;;;5.90;100.00;99161.75;4869585;29;20040;-86
2023/12/11 10:41:34;;;;;;;40.25;12.32;;;;;;;5.93;100.00;99162.41;4865372;29;20036;-85
2023/12/11 10:44:51;;;;;;;45.58;13.05;;;7.30;99.90;;;5.97;100.00;99154.47;4839273;29;20135;-85
2023/12/11 10:50:26;;;;;;;45.75;12.90;;;7.50;99.90;;;6.09;100.00;99159.88;4830290;29;20045;-86
2023/12/11 10:53:04;;;;;;;41.03;13.10;;;;;;;6.12;100.00;99162.31;4817443;29;20048;-86
2023/12/11 10:55:57;;;;;;;39.53;12.90;;;7.60;99.90;;;6.12;100.00;99151.88;4889332;23;20058;-85
2023/12/11 10:58:37;;;;;;;;;;;;;;;;;;;;;
2023/12/11 11:01:23;;;;;;;44.33;13.50;;;7.60;99.90;;;6.17;100.00;99154.22;4943720;28;20042;-87